MV Wenatchee — WCY3378 — position and weather

sailwx.info

Track history (hours):
 
Tides and Currents Weather Stations Pressure Air Temp Water Temp Dewpoint Dewpoint Depression Visibility Wind Speed Wind Dir Waves Ship Positions

MV Wenatchee

Owner: Washington, State of; Department of Tranportation, OLYMPIA, WA. More information available from US FCC via Universal Licensing System and Coast Guard Vessel Documentation Center.

Last reported at 2018-Feb-21 17:00 UTC. Time now 2018-Feb-21 17:27 UTC.
Position N 47°36' W 122°27'.

Length 95 m; draft 5.6 m.

Type: Passenger vessel. MMSI: 366749710.

Date/timePositionNaut miles runAvg speedWind from/ knotsBaromVisibWave heightAir tempDewpointWater temp
2018-Feb-21 17:00N 47°36' W 122°27'4 8.3
2018-Feb-21 16:30N 47°36' W 122°20'612.4
2018-Feb-21 16:01N 47°37' W 122°30'0 0.8
2018-Feb-21 15:30N 47°37' W 122°30'611.5
2018-Feb-21 14:57N 47°36' W 122°20'511.3
2018-Feb-21 14:30N 47°36' W 122°28'2 4.0
2018-Feb-21 14:00N 47°37' W 122°31'7 9.5
2018-Feb-21 13:17N 47°36' W 122°20'414.0
2018-Feb-21 13:00N 47°36' W 122°26'3 6.4
2018-Feb-21 12:30N 47°37' W 122°31'0 0.0
2018-Feb-21 12:00N 47°37' W 122°31'0 0.0
2018-Feb-21 11:30N 47°37' W 122°31'0 0.0
2018-Feb-21 11:00N 47°37' W 122°31'0 0.0
2018-Feb-21 10:30N 47°37' W 122°31'0 0.0
2018-Feb-21 10:00N 47°37' W 122°31'0 0.0
2018-Feb-21 09:30N 47°37' W 122°31'0 0.0
2018-Feb-21 09:00N 47°37' W 122°31'0 0.0
2018-Feb-21 08:30N 47°37' W 122°31'0 0.0
2018-Feb-21 08:00N 47°37' W 122°31'0 0.0
2018-Feb-21 07:30N 47°37' W 122°31'0 0.0
2018-Feb-21 07:00N 47°37' W 122°31'1 1.1
2018-Feb-21 06:30N 47°37' W 122°30'6 8.7
2018-Feb-21 05:46N 47°36' W 122°20'0 0.0
2018-Feb-21 05:29N 47°36' W 122°20'714.5
2018-Feb-21 05:00N 47°37' W 122°30'3 5.4
2018-Feb-21 04:30N 47°36' W 122°27'4 6.8
2018-Feb-21 03:52N 47°36' W 122°20'513.5
2018-Feb-21 03:30N 47°37' W 122°27'2 4.3
2018-Feb-21 03:00N 47°37' W 122°30'712.6
2018-Feb-21 02:27N 47°36' W 122°20'2 3.9
2018-Feb-21 02:00N 47°37' W 122°23'510.3
2018-Feb-21 01:30N 47°37' W 122°31'3 6.9
2018-Feb-21 01:01N 47°36' W 122°26'4 6.8
2018-Feb-21 00:28N 47°36' W 122°20'511.0
2018-Feb-21 00:00N 47°36' W 122°28'2 3.8
2018-Feb-20 23:30N 47°37' W 122°31'713.5
2018-Feb-20 23:00N 47°36' W 122°21'0 0.3
2018-Feb-20 22:30N 47°36' W 122°21'713.2
2018-Feb-20 22:00N 47°37' W 122°31'1 2.9
2018-Feb-20 21:31N 47°36' W 122°29'6 9.0
2018-Feb-20 20:51N 47°36' W 122°20'515.2
2018-Feb-20 20:30N 47°36' W 122°28'2 3.7
2018-Feb-20 20:00N 47°37' W 122°31'611.5
2018-Feb-20 19:31N 47°36' W 122°22'1 2.3
2018-Feb-20 18:59N 47°36' W 122°20'612.9
2018-Feb-20 18:30N 47°37' W 122°30'0 0.8
2018-Feb-20 18:01N 47°37' W 122°30'6 9.4
2018-Feb-20 17:20N 47°36' W 122°20'411.0
2018-Feb-20 17:00N 47°37' W 122°26'3 6.8
2018-Feb-20 16:30N 47°37' W 122°31'612.1
2018-Feb-20 16:00N 47°36' W 122°22'0 0.3
2018-Feb-20 15:30N 47°36' W 122°22'612.3
2018-Feb-20 15:01N 47°37' W 122°31'3 5.7
2018-Feb-20 14:30N 47°36' W 122°27'4 7.2
2018-Feb-20 13:54N 47°36' W 122°20'513.0
2018-Feb-20 13:30N 47°36' W 122°28'2 3.4
2018-Feb-20 12:56N 47°37' W 122°31'0 0.0
2018-Feb-20 12:26N 47°37' W 122°31'0 0.0
2018-Feb-20 11:50N 47°37' W 122°31'0 0.0
2018-Feb-20 11:29N 47°37' W 122°31'0 0.0
2018-Feb-20 10:59N 47°37' W 122°31'0 0.0
2018-Feb-20 10:29N 47°37' W 122°31'0 0.0
2018-Feb-20 09:59N 47°37' W 122°31'0 0.0
2018-Feb-20 09:29N 47°37' W 122°31'0 0.0
2018-Feb-20 08:59N 47°37' W 122°31'0 0.0
2018-Feb-20 08:29N 47°37' W 122°31'0 0.0
2018-Feb-20 07:56N 47°37' W 122°31'0 0.0
2018-Feb-20 07:29N 47°37' W 122°31'0 0.0
2018-Feb-20 06:56N 47°37' W 122°31'1 1.3
2018-Feb-20 06:30N 47°37' W 122°30'6 6.7
2018-Feb-20 05:33N 47°36' W 122°20'0 1.7
2018-Feb-20 05:29N 47°36' W 122°21'714.3
2018-Feb-20 05:00N 47°37' W 122°31'3 5.5
2018-Feb-20 04:30N 47°36' W 122°27'4 8.3
2018-Feb-20 03:59N 47°36' W 122°20'510.9
2018-Feb-20 03:30N 47°37' W 122°28'2 3.0
2018-Feb-20 03:00N 47°37' W 122°30'712.4
2018-Feb-20 02:29N 47°36' W 122°20'2 3.4
2018-Feb-20 02:00N 47°37' W 122°23'5 9.7
2018-Feb-20 01:28N 47°37' W 122°31'4 8.2
2018-Feb-20 01:00N 47°36' W 122°25'3 6.2
2018-Feb-20 00:28N 47°36' W 122°20'612.9
2018-Feb-20 00:00N 47°36' W 122°29'1 2.5
2018-Feb-19 23:30N 47°37' W 122°31'713.6
2018-Feb-19 23:00N 47°36' W 122°21'1 2.2
2018-Feb-19 22:30N 47°36' W 122°22'610.6
2018-Feb-19 21:58N 47°37' W 122°31'2 5.4
2018-Feb-19 21:31N 47°36' W 122°28'5 9.2
2018-Feb-19 20:59N 47°36' W 122°20'612.9
2018-Feb-19 20:30N 47°37' W 122°30'1 2.0
2018-Feb-19 20:00N 47°37' W 122°31'713.0
2018-Feb-19 19:29N 47°36' W 122°21'0 0.3
2018-Feb-19 19:00N 47°36' W 122°20'612.5
2018-Feb-19 18:30N 47°37' W 122°30'0 0.3
2018-Feb-19 18:00N 47°37' W 122°30'6 8.5
2018-Feb-19 17:16N 47°36' W 122°20'414.3
2018-Feb-19 17:00N 47°37' W 122°26'3 6.3
2018-Feb-19 16:30N 47°37' W 122°31'611.5
2018-Feb-19 16:00N 47°36' W 122°22'1 1.7
2018-Feb-19 15:30N 47°36' W 122°21'612.7
2018-Feb-19 15:00N 47°37' W 122°31'3 5.2
2018-Feb-19 14:31N 47°36' W 122°28'5 7.3
2018-Feb-19 13:51N 47°36' W 122°20'514.9
2018-Feb-19 13:31N 47°36' W 122°28'2 3.7
2018-Feb-19 12:57N 47°37' W 122°31'0 0.0
2018-Feb-19 12:30N 47°37' W 122°31'0 0.0
2018-Feb-19 12:00N 47°37' W 122°31'0 0.0
2018-Feb-19 11:27N 47°37' W 122°31'0 0.0
2018-Feb-19 10:57N 47°37' W 122°31'1 3.2
2018-Feb-19 10:30N 47°36' W 122°29'610.5
2018-Feb-19 09:57N 47°36' W 122°21'614.7
2018-Feb-19 09:30N 47°37' W 122°30'2 4.9
2018-Feb-19 09:00N 47°36' W 122°27'4 7.7
2018-Feb-19 08:29N 47°36' W 122°21'714.3
2018-Feb-19 08:00N 47°37' W 122°30'3 5.2
2018-Feb-19 07:30N 47°36' W 122°27'4 8.2
2018-Feb-19 07:00N 47°36' W 122°21'712.0
2018-Feb-19 06:28N 47°37' W 122°31'3 7.6
2018-Feb-19 06:00N 47°36' W 122°26'4 6.8
2018-Feb-19 05:28N 47°36' W 122°20'614.1
2018-Feb-19 05:00N 47°37' W 122°30'2 3.9
2018-Feb-19 04:30N 47°36' W 122°27'5 7.0
2018-Feb-19 03:50N 47°36' W 122°20'411.5
2018-Feb-19 03:31N 47°37' W 122°26'3 6.6
2018-Feb-19 03:00N 47°37' W 122°31'611.6
2018-Feb-19 02:30N 47°36' W 122°22'1 1.8
2018-Feb-19 02:00N 47°36' W 122°21'713.3
2018-Feb-19 01:30N 47°37' W 122°31'3 6.6
2018-Feb-19 01:00N 47°36' W 122°26'4 6.6
2018-Feb-19 00:25N 47°36' W 122°20'614.8
2018-Feb-19 00:01N 47°36' W 122°29'1 1.5
2018-Feb-18 23:30N 47°37' W 122°30'6 7.9
2018-Feb-18 22:42N 47°36' W 122°20'2 9.6
2018-Feb-18 22:30N 47°37' W 122°23'5 9.5
2018-Feb-18 21:58N 47°37' W 122°31'3 6.7
2018-Feb-18 21:30N 47°36' W 122°26'4 6.8
2018-Feb-18 20:55N 47°36' W 122°20'613.9
2018-Feb-18 20:31N 47°36' W 122°29'2 3.1
2018-Feb-18 20:00N 47°37' W 122°31'612.5
2018-Feb-18 19:30N 47°36' W 122°21'0 0.6
2018-Feb-18 18:52N 47°36' W 122°21'617.0
2018-Feb-18 18:30N 47°37' W 122°30'0 0.2
2018-Feb-18 18:01N 47°37' W 122°30'6 8.8
2018-Feb-18 17:18N 47°36' W 122°20'412.0
2018-Feb-18 17:01N 47°37' W 122°25'3 6.4
2018-Feb-18 16:29N 47°37' W 122°31'611.9
2018-Feb-18 16:00N 47°36' W 122°22'1 1.7
2018-Feb-18 15:31N 47°36' W 122°21'612.5
2018-Feb-18 15:00N 47°37' W 122°31'1 2.8
2018-Feb-18 14:30N 47°36' W 122°29'6 9.6
2018-Feb-18 13:54N 47°36' W 122°20'513.6
2018-Feb-18 13:31N 47°36' W 122°28'2 3.6
2018-Feb-18 13:00N 47°37' W 122°31'0 0.0
2018-Feb-18 12:21N 47°37' W 122°31'0 0.0
2018-Feb-18 11:57N 47°37' W 122°31'0 0.0
2018-Feb-18 11:27N 47°37' W 122°31'0 0.0
2018-Feb-18 11:00N 47°37' W 122°31'1 3.0
2018-Feb-18 10:30N 47°36' W 122°29'6 9.4
2018-Feb-18 09:54N 47°36' W 122°21'616.0
2018-Feb-18 09:30N 47°37' W 122°30'2 3.3
2018-Feb-18 09:00N 47°36' W 122°27'5 9.1
2018-Feb-18 08:30N 47°36' W 122°20'713.8
2018-Feb-18 08:00N 47°37' W 122°31'3 6.3
2018-Feb-18 07:30N 47°36' W 122°26'4 6.6
2018-Feb-18 06:58N 47°36' W 122°21'714.1
2018-Feb-18 06:30N 47°37' W 122°30'3 6.5
2018-Feb-18 06:00N 47°36' W 122°26'4 6.8
2018-Feb-18 05:27N 47°36' W 122°20'614.1
2018-Feb-18 05:00N 47°37' W 122°30'1 1.9
2018-Feb-18 04:30N 47°36' W 122°28'5 8.1
2018-Feb-18 03:50N 47°36' W 122°20'413.1
2018-Feb-18 03:30N 47°37' W 122°27'3 5.2
2018-Feb-18 03:00N 47°37' W 122°31'611.7
2018-Feb-18 02:30N 47°36' W 122°22'1 1.8
2018-Feb-18 02:00N 47°36' W 122°21'712.9
2018-Feb-18 01:29N 47°37' W 122°31'3 7.2
2018-Feb-18 01:01N 47°36' W 122°26'4 7.0
2018-Feb-18 00:30N 47°36' W 122°20'713.0
2018-Feb-17 23:58N 47°37' W 122°31'1 3.0
2018-Feb-17 23:30N 47°37' W 122°29'6 7.1
2018-Feb-17 22:43N 47°36' W 122°20'2 7.5
2018-Feb-17 22:30N 47°37' W 122°23'510.2
2018-Feb-17 21:59N 47°37' W 122°31'3 6.4
2018-Feb-17 21:31N 47°36' W 122°27'4 6.4
2018-Feb-17 20:51N 47°36' W 122°20'514.3
2018-Feb-17 20:30N 47°36' W 122°28'2 4.2
2018-Feb-17 20:00N 47°37' W 122°31'611.6
2018-Feb-17 19:31N 47°36' W 122°22'1 2.2
2018-Feb-17 18:58N 47°36' W 122°20'613.5
2018-Feb-17 18:30N 47°37' W 122°30'1 1.2
2018-Feb-17 18:01N 47°36' W 122°29'6 7.0
2018-Feb-17 17:12N 47°36' W 122°21'317.1
2018-Feb-17 17:00N 47°37' W 122°25'4 6.9
2018-Feb-17 16:30N 47°37' W 122°31'511.1
2018-Feb-17 16:00N 47°36' W 122°23'1 2.0
2018-Feb-17 15:30N 47°36' W 122°21'612.1
2018-Feb-17 14:58N 47°37' W 122°31'2 3.5
2018-Feb-17 14:30N 47°36' W 122°29'611.1
2018-Feb-17 14:00N 47°36' W 122°20'713.4
2018-Feb-17 13:31N 47°37' W 122°30'0 0.5
2018-Feb-17 12:58N 47°37' W 122°31'0 0.0
2018-Feb-17 12:25N 47°37' W 122°31'0 0.0
2018-Feb-17 11:58N 47°37' W 122°31'0 0.0
2018-Feb-17 11:28N 47°37' W 122°31'0 0.0
2018-Feb-17 10:55N 47°37' W 122°31'0 0.0
2018-Feb-17 10:28N 47°37' W 122°31'0 0.0
2018-Feb-17 09:58N 47°37' W 122°31'0 0.0
2018-Feb-17 09:28N 47°37' W 122°31'0 0.0
2018-Feb-17 08:55N 47°37' W 122°31'0 0.0
2018-Feb-17 08:28N 47°37' W 122°31'0 0.0
2018-Feb-17 07:55N 47°37' W 122°31'0 0.0
2018-Feb-17 07:19N 47°37' W 122°31'0 0.0
2018-Feb-17 06:58N 47°37' W 122°31'1 1.3
2018-Feb-17 06:31N 47°37' W 122°30'6 9.0
2018-Feb-17 05:48N 47°36' W 122°20'0 0.4
2018-Feb-17 05:29N 47°36' W 122°21'714.1
2018-Feb-17 05:00N 47°37' W 122°30'3 6.5
2018-Feb-17 04:30N 47°36' W 122°26'4 6.1
2018-Feb-17 03:53N 47°36' W 122°20'513.4
2018-Feb-17 03:30N 47°37' W 122°28'2 3.8
2018-Feb-17 03:01N 47°37' W 122°31'712.9
2018-Feb-17 02:28N 47°36' W 122°20'1 1.4
2018-Feb-17 02:00N 47°36' W 122°21'611.7
2018-Feb-17 01:28N 47°37' W 122°31'3 5.6
2018-Feb-17 01:00N 47°36' W 122°27'5 9.2
2018-Feb-17 00:31N 47°36' W 122°20'5 9.8
2018-Feb-17 00:00N 47°37' W 122°28'2 4.1
2018-Feb-16 23:30N 47°37' W 122°31'7 8.2
2018-Feb-16 22:40N 47°36' W 122°20'1 6.2
2018-Feb-16 22:30N 47°36' W 122°22'610.6
2018-Feb-16 21:57N 47°37' W 122°31'2 4.8
2018-Feb-16 21:30N 47°36' W 122°28'5 9.2
2018-Feb-16 20:57N 47°36' W 122°20'613.4
2018-Feb-16 20:30N 47°36' W 122°29'1 2.5
2018-Feb-16 20:00N 47°37' W 122°31'611.9
2018-Feb-16 19:31N 47°36' W 122°22'1 1.4
2018-Feb-16 18:55N 47°36' W 122°21'615.2
2018-Feb-16 18:30N 47°37' W 122°30'0 1.0
2018-Feb-16 18:00N 47°37' W 122°29'611.8
2018-Feb-16 17:29N 47°36' W 122°20'4 7.8
2018-Feb-16 17:01N 47°37' W 122°26'3 6.2
2018-Feb-16 16:29N 47°37' W 122°31'611.5
2018-Feb-16 16:00N 47°36' W 122°22'1 1.3
2018-Feb-16 15:30N 47°36' W 122°21'612.1
2018-Feb-16 14:59N 47°37' W 122°31'2 4.1
2018-Feb-16 14:30N 47°36' W 122°28'5 9.5
2018-Feb-16 13:56N 47°36' W 122°20'613.2
2018-Feb-16 13:30N 47°36' W 122°29'2 2.9
2018-Feb-16 12:59N 47°37' W 122°31'0 0.0
2018-Feb-16 12:29N 47°37' W 122°31'0 0.0
2018-Feb-16 11:59N 47°37' W 122°31'0 0.0
2018-Feb-16 11:29N 47°37' W 122°31'0 0.0
2018-Feb-16 10:59N 47°37' W 122°31'0 0.0
2018-Feb-16 10:29N 47°37' W 122°31'0 0.0
2018-Feb-16 09:59N 47°37' W 122°31'0 0.0
2018-Feb-16 09:29N 47°37' W 122°31'0 0.0
2018-Feb-16 08:59N 47°37' W 122°31'0 0.0
2018-Feb-16 08:29N 47°37' W 122°31'0 0.0
2018-Feb-16 07:59N 47°37' W 122°31'0 0.0
2018-Feb-16 07:29N 47°37' W 122°31'0 0.0
2018-Feb-16 06:59N 47°37' W 122°31'1 1.1
2018-Feb-16 06:30N 47°37' W 122°30'6 5.9
2018-Feb-16 05:27N 47°36' W 122°21'714.7
2018-Feb-16 05:00N 47°37' W 122°30'3 6.7
2018-Feb-16 04:30N 47°36' W 122°26'4 6.8
2018-Feb-16 03:58N 47°36' W 122°20'714.6
2018-Feb-16 03:31N 47°37' W 122°30'0 0.7
2018-Feb-16 03:00N 47°37' W 122°31'7 8.1
2018-Feb-16 02:09N 47°36' W 122°20'1 9.3
2018-Feb-16 02:00N 47°37' W 122°22'610.6
2018-Feb-16 01:29N 47°37' W 122°31'3 5.8
2018-Feb-16 01:00N 47°37' W 122°27'4 8.5
2018-Feb-16 00:30N 47°36' W 122°20'510.1
2018-Feb-16 00:00N 47°36' W 122°28'2 4.1
2018-Feb-15 23:30N 47°37' W 122°31'713.1
2018-Feb-15 22:59N 47°36' W 122°20'2 3.3
2018-Feb-15 22:30N 47°37' W 122°23'5 9.7
2018-Feb-15 21:57N 47°37' W 122°31'2 3.4
2018-Feb-15 21:30N 47°36' W 122°29'6 9.1
2018-Feb-15 20:52N 47°36' W 122°20'513.8
2018-Feb-15 20:30N 47°36' W 122°28'2 4.0
2018-Feb-15 19:59N 47°37' W 122°31'612.1
2018-Feb-15 19:30N 47°36' W 122°22'1 2.3
2018-Feb-15 18:58N 47°36' W 122°20'613.6
2018-Feb-15 18:30N 47°37' W 122°30'0 0.0
2018-Feb-15 18:00N 47°37' W 122°30'610.0
2018-Feb-15 17:22N 47°36' W 122°20'410.9
2018-Feb-15 17:01N 47°37' W 122°26'3 5.9
2018-Feb-15 16:29N 47°37' W 122°31'611.7
2018-Feb-15 16:00N 47°36' W 122°22'0 0.9
2018-Feb-15 15:30N 47°36' W 122°22'611.5
2018-Feb-15 14:59N 47°37' W 122°31'2 4.1
2018-Feb-15 14:30N 47°36' W 122°28'5 8.2
2018-Feb-15 13:51N 47°36' W 122°20'514.4
2018-Feb-15 13:31N 47°36' W 122°28'2 4.2
2018-Feb-15 13:00N 47°37' W 122°31'0 0.0
2018-Feb-15 12:30N 47°37' W 122°31'0 0.0
2018-Feb-15 12:00N 47°37' W 122°31'0 0.0
2018-Feb-15 11:30N 47°37' W 122°31'0 0.0
2018-Feb-15 11:00N 47°37' W 122°31'0 0.0
2018-Feb-15 10:30N 47°37' W 122°31'0 0.0
2018-Feb-15 09:54N 47°37' W 122°31'0 0.0
2018-Feb-15 09:30N 47°37' W 122°31'0 0.0
2018-Feb-15 08:59N 47°37' W 122°31'0 0.0
2018-Feb-15 08:27N 47°37' W 122°31'0 0.0
2018-Feb-15 08:00N 47°37' W 122°31'0 0.0
2018-Feb-15 07:29N 47°37' W 122°31'0 0.0
2018-Feb-15 06:59N 47°37' W 122°31'1 1.4
2018-Feb-15 06:30N 47°37' W 122°30'6 6.5
2018-Feb-15 05:32N 47°36' W 122°20'0 2.6
2018-Feb-15 05:29N 47°36' W 122°21'714.1
2018-Feb-15 05:00N 47°37' W 122°30'3 5.9
2018-Feb-15 04:30N 47°36' W 122°26'4 6.8
2018-Feb-15 03:54N 47°36' W 122°20'513.2
2018-Feb-15 03:30N 47°36' W 122°28'2 3.2
2018-Feb-15 03:00N 47°37' W 122°30'7 7.6
2018-Feb-15 02:08N 47°36' W 122°20'1 7.8
2018-Feb-15 02:00N 47°36' W 122°22'611.8
2018-Feb-15 01:30N 47°37' W 122°31'3 6.4
2018-Feb-15 01:00N 47°36' W 122°26'4 7.8
2018-Feb-15 00:30N 47°36' W 122°20'510.5
2018-Feb-15 00:00N 47°36' W 122°28'2 3.8
2018-Feb-14 23:30N 47°37' W 122°31'713.6
2018-Feb-14 23:00N 47°36' W 122°21'1 1.6
2018-Feb-14 22:30N 47°36' W 122°22'611.9
2018-Feb-14 22:00N 47°37' W 122°31'2 4.4
2018-Feb-14 21:30N 47°36' W 122°28'5 7.9
2018-Feb-14 20:52N 47°36' W 122°20'514.1
2018-Feb-14 20:31N 47°36' W 122°28'2 4.2
2018-Feb-14 20:00N 47°37' W 122°31'611.9
2018-Feb-14 19:30N 47°36' W 122°22'1 1.8
2018-Feb-14 18:57N 47°36' W 122°20'614.3
2018-Feb-14 18:30N 47°37' W 122°30'0 0.1
2018-Feb-14 18:00N 47°37' W 122°30'6 8.9
2018-Feb-14 17:18N 47°36' W 122°20'413.1
2018-Feb-14 17:00N 47°37' W 122°26'3 6.1
2018-Feb-14 16:29N 47°37' W 122°31'612.1
2018-Feb-14 16:00N 47°36' W 122°22'0 0.6
2018-Feb-14 15:30N 47°36' W 122°22'611.6
2018-Feb-14 14:59N 47°37' W 122°31'3 5.7
2018-Feb-14 14:30N 47°36' W 122°27'4 7.6
2018-Feb-14 13:56N 47°36' W 122°20'512.0
2018-Feb-14 13:30N 47°36' W 122°28'2 3.8
2018-Feb-14 12:58N 47°37' W 122°31'0 0.0
2018-Feb-14 12:28N 47°37' W 122°31'0 0.0
2018-Feb-14 11:58N 47°37' W 122°31'0 0.0
2018-Feb-14 11:28N 47°37' W 122°31'0 0.0
2018-Feb-14 10:58N 47°37' W 122°31'0 0.0
2018-Feb-14 10:19N 47°37' W 122°31'0 1.4
2018-Feb-14 10:00N 47°37' W 122°30'712.7
2018-Feb-14 09:30N 47°36' W 122°20'612.7
2018-Feb-14 09:01N 47°37' W 122°30'2 4.7
2018-Feb-14 08:30N 47°36' W 122°26'2 4.3
2018-Feb-14 08:00N 47°36' W 122°23'510.9
2018-Feb-14 07:30N 47°37' W 122°31'612.2
2018-Feb-14 07:00N 47°36' W 122°22'1 1.6
2018-Feb-14 06:30N 47°36' W 122°20'613.1
2018-Feb-14 06:00N 47°37' W 122°30'2 4.3
2018-Feb-14 05:30N 47°36' W 122°27'4 6.6
2018-Feb-14 04:51N 47°36' W 122°20'515.8
2018-Feb-14 04:30N 47°36' W 122°28'2 3.5
2018-Feb-14 04:00N 47°37' W 122°30'7 8.2
2018-Feb-14 03:10N 47°36' W 122°20'212.8
2018-Feb-14 03:00N 47°37' W 122°23'5 8.6
2018-Feb-14 02:26N 47°37' W 122°31'3 6.5
2018-Feb-14 02:00N 47°36' W 122°27'4 6.5
2018-Feb-14 01:21N 47°36' W 122°20'411.2
2018-Feb-14 01:00N 47°37' W 122°26'3 6.1
2018-Feb-14 00:30N 47°37' W 122°31'5 9.5
2018-Feb-14 00:00N 47°36' W 122°24'2 4.1
2018-Feb-13 23:28N 47°36' W 122°21'714.5
2018-Feb-13 23:00N 47°37' W 122°31'1 1.9
2018-Feb-13 22:30N 47°37' W 122°30'610.7
2018-Feb-13 21:56N 47°36' W 122°20'612.8
2018-Feb-13 21:30N 47°36' W 122°29'2 3.4
2018-Feb-13 21:00N 47°37' W 122°30'611.4
2018-Feb-13 20:28N 47°36' W 122°21'1 1.3
2018-Feb-13 19:59N 47°36' W 122°21'712.7
2018-Feb-13 19:27N 47°37' W 122°31'2 3.4
2018-Feb-13 19:00N 47°36' W 122°29'611.2
2018-Feb-13 18:29N 47°36' W 122°20'3 5.5
2018-Feb-13 18:00N 47°36' W 122°24'4 8.0
2018-Feb-13 17:28N 47°37' W 122°31'3 7.1
2018-Feb-13 17:01N 47°36' W 122°26'4 7.7
2018-Feb-13 16:30N 47°36' W 122°20'713.1
2018-Feb-13 16:00N 47°37' W 122°30'1 1.6
2018-Feb-13 15:30N 47°37' W 122°29'611.8
2018-Feb-13 14:59N 47°36' W 122°20'611.7
2018-Feb-13 14:30N 47°36' W 122°29'1 2.8
2018-Feb-13 14:00N 47°37' W 122°30'711.0
2018-Feb-13 13:24N 47°36' W 122°20'614.5
2018-Feb-13 13:00N 47°36' W 122°29'2 2.9
2018-Feb-13 12:28N 47°37' W 122°31'0 0.0
2018-Feb-13 11:58N 47°37' W 122°31'0 0.0
2018-Feb-13 11:28N 47°37' W 122°31'0 0.0
2018-Feb-13 10:58N 47°37' W 122°31'0 0.0
2018-Feb-13 10:28N 47°37' W 122°31'1 1.5
2018-Feb-13 10:00N 47°37' W 122°30'611.4
2018-Feb-13 09:27N 47°36' W 122°20'613.9
2018-Feb-13 09:00N 47°37' W 122°30'2 3.6
2018-Feb-13 08:30N 47°36' W 122°27'4 7.6
2018-Feb-13 08:00N 47°36' W 122°21'612.1
2018-Feb-13 07:30N 47°37' W 122°31'611.5
2018-Feb-13 07:00N 47°36' W 122°22'1 1.9
2018-Feb-13 06:25N 47°36' W 122°21'615.0
2018-Feb-13 06:00N 47°37' W 122°30'2 4.4
2018-Feb-13 05:30N 47°36' W 122°27'4 7.0
2018-Feb-13 04:53N 47°36' W 122°20'513.7
2018-Feb-13 04:31N 47°36' W 122°28'1 2.0
2018-Feb-13 04:00N 47°37' W 122°30'6 7.4
2018-Feb-13 03:11N 47°36' W 122°20'213.5
2018-Feb-13 03:01N 47°36' W 122°24'5 9.1
2018-Feb-13 02:30N 47°37' W 122°31'3 5.9
2018-Feb-13 02:00N 47°36' W 122°27'4 6.1
2018-Feb-13 01:20N 47°36' W 122°20'412.5
2018-Feb-13 01:01N 47°36' W 122°26'3 5.6
2018-Feb-13 00:29N 47°37' W 122°31'4 9.0
2018-Feb-13 00:01N 47°36' W 122°24'3 4.9
2018-Feb-12 23:29N 47°36' W 122°20'613.3
2018-Feb-12 23:00N 47°37' W 122°30'0 0.1
2018-Feb-12 22:30N 47°37' W 122°30'6 9.4
2018-Feb-12 21:51N 47°36' W 122°20'513.9
2018-Feb-12 21:30N 47°37' W 122°27'2 4.1
2018-Feb-12 21:00N 47°37' W 122°30'611.5
2018-Feb-12 20:30N 47°36' W 122°22'1 1.9
2018-Feb-12 20:00N 47°36' W 122°20'713.6
2018-Feb-12 19:30N 47°37' W 122°30'2 3.6
2018-Feb-12 19:01N 47°36' W 122°29'6 9.3
2018-Feb-12 18:25N 47°36' W 122°20'2 5.9
2018-Feb-12 18:01N 47°36' W 122°24'5 8.4
2018-Feb-12 17:28N 47°37' W 122°31'4 8.6
2018-Feb-12 17:00N 47°36' W 122°25'3 6.2
2018-Feb-12 16:31N 47°36' W 122°20'713.4
2018-Feb-12 16:00N 47°37' W 122°30'1 1.4
2018-Feb-12 15:30N 47°37' W 122°30'611.7
2018-Feb-12 14:59N 47°36' W 122°20'511.1
2018-Feb-12 14:30N 47°36' W 122°28'2 3.8
2018-Feb-12 14:00N 47°37' W 122°31'711.6
2018-Feb-12 13:25N 47°36' W 122°20'410.4
2018-Feb-12 13:00N 47°36' W 122°27'3 5.7
2018-Feb-12 12:30N 47°37' W 122°31'0 0.0
2018-Feb-12 12:00N 47°37' W 122°31'0 0.0
2018-Feb-12 11:30N 47°37' W 122°31'0 0.0
2018-Feb-12 11:00N 47°37' W 122°31'0 0.0
2018-Feb-12 10:30N 47°37' W 122°31'0 0.0
2018-Feb-12 10:00N 47°37' W 122°31'0 0.0
2018-Feb-12 09:27N 47°37' W 122°31'0 0.0
2018-Feb-12 09:00N 47°37' W 122°31'0 0.0
2018-Feb-12 08:30N 47°37' W 122°31'0 0.0
2018-Feb-12 07:56N 47°37' W 122°31'0 0.0
2018-Feb-12 07:30N 47°37' W 122°31'2 3.5
2018-Feb-12 07:00N 47°36' W 122°29'6 7.4
2018-Feb-12 06:15N 47°36' W 122°20'414.8
2018-Feb-12 06:00N 47°36' W 122°26'3 6.6
2018-Feb-12 05:30N 47°37' W 122°31'711.5
2018-Feb-12 04:54N 47°36' W 122°20'3 7.0
2018-Feb-12 04:30N 47°37' W 122°25'4 8.3
2018-Feb-12 04:00N 47°37' W 122°31'7 9.0
2018-Feb-12 03:14N 47°36' W 122°20'1 4.0
2018-Feb-12 03:01N 47°36' W 122°22'611.5
2018-Feb-12 02:29N 47°37' W 122°31'2 4.4
2018-Feb-12 02:01N 47°36' W 122°28'510.4
2018-Feb-12 01:30N 47°36' W 122°20'4 7.4
2018-Feb-12 01:01N 47°36' W 122°26'3 6.6
2018-Feb-12 00:30N 47°37' W 122°31'611.1
2018-Feb-12 00:00N 47°36' W 122°23'1 2.1
2018-Feb-11 23:30N 47°36' W 122°21'713.1
2018-Feb-11 23:00N 47°37' W 122°31'2 4.4
2018-Feb-11 22:30N 47°36' W 122°28'5 7.8
2018-Feb-11 21:52N 47°36' W 122°20'514.6
2018-Feb-11 21:31N 47°36' W 122°28'2 3.7
2018-Feb-11 21:00N 47°37' W 122°31'7 8.6
2018-Feb-11 20:12N 47°36' W 122°20'210.8
2018-Feb-11 20:00N 47°36' W 122°24'5 9.2
2018-Feb-11 19:29N 47°37' W 122°31'2 4.0
2018-Feb-11 19:00N 47°36' W 122°28'5 7.3
2018-Feb-11 18:16N 47°36' W 122°20'413.5
2018-Feb-11 18:00N 47°36' W 122°26'4 6.4
2018-Feb-11 17:28N 47°37' W 122°31'612.5
2018-Feb-11 17:00N 47°36' W 122°22'  
Track history (hours):
 
Tides and Currents Weather Stations Pressure Air Temp Water Temp Dewpoint Dewpoint Depression Visibility Wind Speed Wind Dir Waves Ship Positions

MV Wenatchee

Owner: Washington, State of; Department of Tranportation, OLYMPIA, WA. More information available from US FCC via Universal Licensing System and Coast Guard Vessel Documentation Center.

Last reported at 2018-Feb-21 17:00 UTC. Time now 2018-Feb-21 17:27 UTC.
Position N 47°36' W 122°27'.

Length 95 m; draft 5.6 m.

Type: Passenger vessel. MMSI: 366749710.

Date/timePositionNaut miles runAvg speedWind from/ knotsBaromVisibWave heightAir tempDewpointWater temp
2018-Feb-21 17:00N 47°36' W 122°27'4 8.3
2018-Feb-21 16:30N 47°36' W 122°20'612.4
2018-Feb-21 16:01N 47°37' W 122°30'0 0.8
2018-Feb-21 15:30N 47°37' W 122°30'611.5
2018-Feb-21 14:57N 47°36' W 122°20'511.3
2018-Feb-21 14:30N 47°36' W 122°28'2 4.0
2018-Feb-21 14:00N 47°37' W 122°31'7 9.5
2018-Feb-21 13:17N 47°36' W 122°20'414.0
2018-Feb-21 13:00N 47°36' W 122°26'3 6.4
2018-Feb-21 12:30N 47°37' W 122°31'0 0.0
2018-Feb-21 12:00N 47°37' W 122°31'0 0.0
2018-Feb-21 11:30N 47°37' W 122°31'0 0.0
2018-Feb-21 11:00N 47°37' W 122°31'0 0.0
2018-Feb-21 10:30N 47°37' W 122°31'0 0.0
2018-Feb-21 10:00N 47°37' W 122°31'0 0.0
2018-Feb-21 09:30N 47°37' W 122°31'0 0.0
2018-Feb-21 09:00N 47°37' W 122°31'0 0.0
2018-Feb-21 08:30N 47°37' W 122°31'0 0.0
2018-Feb-21 08:00N 47°37' W 122°31'0 0.0
2018-Feb-21 07:30N 47°37' W 122°31'0 0.0
2018-Feb-21 07:00N 47°37' W 122°31'1 1.1
2018-Feb-21 06:30N 47°37' W 122°30'6 8.7
2018-Feb-21 05:46N 47°36' W 122°20'0 0.0
2018-Feb-21 05:29N 47°36' W 122°20'714.5
2018-Feb-21 05:00N 47°37' W 122°30'3 5.4
2018-Feb-21 04:30N 47°36' W 122°27'4 6.8
2018-Feb-21 03:52N 47°36' W 122°20'513.5
2018-Feb-21 03:30N 47°37' W 122°27'2 4.3
2018-Feb-21 03:00N 47°37' W 122°30'712.6
2018-Feb-21 02:27N 47°36' W 122°20'2 3.9
2018-Feb-21 02:00N 47°37' W 122°23'510.3
2018-Feb-21 01:30N 47°37' W 122°31'3 6.9
2018-Feb-21 01:01N 47°36' W 122°26'4 6.8
2018-Feb-21 00:28N 47°36' W 122°20'511.0
2018-Feb-21 00:00N 47°36' W 122°28'2 3.8
2018-Feb-20 23:30N 47°37' W 122°31'713.5
2018-Feb-20 23:00N 47°36' W 122°21'0 0.3
2018-Feb-20 22:30N 47°36' W 122°21'713.2
2018-Feb-20 22:00N 47°37' W 122°31'1 2.9
2018-Feb-20 21:31N 47°36' W 122°29'6 9.0
2018-Feb-20 20:51N 47°36' W 122°20'515.2
2018-Feb-20 20:30N 47°36' W 122°28'2 3.7
2018-Feb-20 20:00N 47°37' W 122°31'611.5
2018-Feb-20 19:31N 47°36' W 122°22'1 2.3
2018-Feb-20 18:59N 47°36' W 122°20'612.9
2018-Feb-20 18:30N 47°37' W 122°30'0 0.8
2018-Feb-20 18:01N 47°37' W 122°30'6 9.4
2018-Feb-20 17:20N 47°36' W 122°20'411.0
2018-Feb-20 17:00N 47°37' W 122°26'3 6.8
2018-Feb-20 16:30N 47°37' W 122°31'612.1
2018-Feb-20 16:00N 47°36' W 122°22'0 0.3
2018-Feb-20 15:30N 47°36' W 122°22'612.3
2018-Feb-20 15:01N 47°37' W 122°31'3 5.7
2018-Feb-20 14:30N 47°36' W 122°27'4 7.2
2018-Feb-20 13:54N 47°36' W 122°20'513.0
2018-Feb-20 13:30N 47°36' W 122°28'2 3.4
2018-Feb-20 12:56N 47°37' W 122°31'0 0.0
2018-Feb-20 12:26N 47°37' W 122°31'0 0.0
2018-Feb-20 11:50N 47°37' W 122°31'0 0.0
2018-Feb-20 11:29N 47°37' W 122°31'0 0.0
2018-Feb-20 10:59N 47°37' W 122°31'0 0.0
2018-Feb-20 10:29N 47°37' W 122°31'0 0.0
2018-Feb-20 09:59N 47°37' W 122°31'0 0.0
2018-Feb-20 09:29N 47°37' W 122°31'0 0.0
2018-Feb-20 08:59N 47°37' W 122°31'0 0.0
2018-Feb-20 08:29N 47°37' W 122°31'0 0.0
2018-Feb-20 07:56N 47°37' W 122°31'0 0.0
2018-Feb-20 07:29N 47°37' W 122°31'0 0.0
2018-Feb-20 06:56N 47°37' W 122°31'1 1.3
2018-Feb-20 06:30N 47°37' W 122°30'6 6.7
2018-Feb-20 05:33N 47°36' W 122°20'0 1.7
2018-Feb-20 05:29N 47°36' W 122°21'714.3
2018-Feb-20 05:00N 47°37' W 122°31'3 5.5
2018-Feb-20 04:30N 47°36' W 122°27'4 8.3
2018-Feb-20 03:59N 47°36' W 122°20'510.9
2018-Feb-20 03:30N 47°37' W 122°28'2 3.0
2018-Feb-20 03:00N 47°37' W 122°30'712.4
2018-Feb-20 02:29N 47°36' W 122°20'2 3.4
2018-Feb-20 02:00N 47°37' W 122°23'5 9.7
2018-Feb-20 01:28N 47°37' W 122°31'4 8.2
2018-Feb-20 01:00N 47°36' W 122°25'3 6.2
2018-Feb-20 00:28N 47°36' W 122°20'612.9
2018-Feb-20 00:00N 47°36' W 122°29'1 2.5
2018-Feb-19 23:30N 47°37' W 122°31'713.6
2018-Feb-19 23:00N 47°36' W 122°21'1 2.2
2018-Feb-19 22:30N 47°36' W 122°22'610.6
2018-Feb-19 21:58N 47°37' W 122°31'2 5.4
2018-Feb-19 21:31N 47°36' W 122°28'5 9.2
2018-Feb-19 20:59N 47°36' W 122°20'612.9
2018-Feb-19 20:30N 47°37' W 122°30'1 2.0
2018-Feb-19 20:00N 47°37' W 122°31'713.0
2018-Feb-19 19:29N 47°36' W 122°21'0 0.3
2018-Feb-19 19:00N 47°36' W 122°20'612.5
2018-Feb-19 18:30N 47°37' W 122°30'0 0.3
2018-Feb-19 18:00N 47°37' W 122°30'6 8.5
2018-Feb-19 17:16N 47°36' W 122°20'414.3
2018-Feb-19 17:00N 47°37' W 122°26'3 6.3
2018-Feb-19 16:30N 47°37' W 122°31'611.5
2018-Feb-19 16:00N 47°36' W 122°22'1 1.7
2018-Feb-19 15:30N 47°36' W 122°21'612.7
2018-Feb-19 15:00N 47°37' W 122°31'3 5.2
2018-Feb-19 14:31N 47°36' W 122°28'5 7.3
2018-Feb-19 13:51N 47°36' W 122°20'514.9
2018-Feb-19 13:31N 47°36' W 122°28'2 3.7
2018-Feb-19 12:57N 47°37' W 122°31'0 0.0
2018-Feb-19 12:30N 47°37' W 122°31'0 0.0
2018-Feb-19 12:00N 47°37' W 122°31'0 0.0
2018-Feb-19 11:27N 47°37' W 122°31'0 0.0
2018-Feb-19 10:57N 47°37' W 122°31'1 3.2
2018-Feb-19 10:30N 47°36' W 122°29'610.5
2018-Feb-19 09:57N 47°36' W 122°21'614.7
2018-Feb-19 09:30N 47°37' W 122°30'2 4.9
2018-Feb-19 09:00N 47°36' W 122°27'4 7.7
2018-Feb-19 08:29N 47°36' W 122°21'714.3
2018-Feb-19 08:00N 47°37' W 122°30'3 5.2
2018-Feb-19 07:30N 47°36' W 122°27'4 8.2
2018-Feb-19 07:00N 47°36' W 122°21'712.0
2018-Feb-19 06:28N 47°37' W 122°31'3 7.6
2018-Feb-19 06:00N 47°36' W 122°26'4 6.8
2018-Feb-19 05:28N 47°36' W 122°20'614.1
2018-Feb-19 05:00N 47°37' W 122°30'2 3.9
2018-Feb-19 04:30N 47°36' W 122°27'5 7.0
2018-Feb-19 03:50N 47°36' W 122°20'411.5
2018-Feb-19 03:31N 47°37' W 122°26'3 6.6
2018-Feb-19 03:00N 47°37' W 122°31'611.6
2018-Feb-19 02:30N 47°36' W 122°22'1 1.8
2018-Feb-19 02:00N 47°36' W 122°21'713.3
2018-Feb-19 01:30N 47°37' W 122°31'3 6.6
2018-Feb-19 01:00N 47°36' W 122°26'4 6.6
2018-Feb-19 00:25N 47°36' W 122°20'614.8
2018-Feb-19 00:01N 47°36' W 122°29'1 1.5
2018-Feb-18 23:30N 47°37' W 122°30'6 7.9
2018-Feb-18 22:42N 47°36' W 122°20'2 9.6
2018-Feb-18 22:30N 47°37' W 122°23'5 9.5
2018-Feb-18 21:58N 47°37' W 122°31'3 6.7
2018-Feb-18 21:30N 47°36' W 122°26'4 6.8
2018-Feb-18 20:55N 47°36' W 122°20'613.9
2018-Feb-18 20:31N 47°36' W 122°29'2 3.1
2018-Feb-18 20:00N 47°37' W 122°31'612.5
2018-Feb-18 19:30N 47°36' W 122°21'0 0.6
2018-Feb-18 18:52N 47°36' W 122°21'617.0
2018-Feb-18 18:30N 47°37' W 122°30'0 0.2
2018-Feb-18 18:01N 47°37' W 122°30'6 8.8
2018-Feb-18 17:18N 47°36' W 122°20'412.0
2018-Feb-18 17:01N 47°37' W 122°25'3 6.4
2018-Feb-18 16:29N 47°37' W 122°31'611.9
2018-Feb-18 16:00N 47°36' W 122°22'1 1.7
2018-Feb-18 15:31N 47°36' W 122°21'612.5
2018-Feb-18 15:00N 47°37' W 122°31'1 2.8
2018-Feb-18 14:30N 47°36' W 122°29'6 9.6
2018-Feb-18 13:54N 47°36' W 122°20'513.6
2018-Feb-18 13:31N 47°36' W 122°28'2 3.6
2018-Feb-18 13:00N 47°37' W 122°31'0 0.0
2018-Feb-18 12:21N 47°37' W 122°31'0 0.0
2018-Feb-18 11:57N 47°37' W 122°31'0 0.0
2018-Feb-18 11:27N 47°37' W 122°31'0 0.0
2018-Feb-18 11:00N 47°37' W 122°31'1 3.0
2018-Feb-18 10:30N 47°36' W 122°29'6 9.4
2018-Feb-18 09:54N 47°36' W 122°21'616.0
2018-Feb-18 09:30N 47°37' W 122°30'2 3.3
2018-Feb-18 09:00N 47°36' W 122°27'5 9.1
2018-Feb-18 08:30N 47°36' W 122°20'713.8
2018-Feb-18 08:00N 47°37' W 122°31'3 6.3
2018-Feb-18 07:30N 47°36' W 122°26'4 6.6
2018-Feb-18 06:58N 47°36' W 122°21'714.1
2018-Feb-18 06:30N 47°37' W 122°30'3 6.5
2018-Feb-18 06:00N 47°36' W 122°26'4 6.8
2018-Feb-18 05:27N 47°36' W 122°20'614.1
2018-Feb-18 05:00N 47°37' W 122°30'1 1.9
2018-Feb-18 04:30N 47°36' W 122°28'5 8.1
2018-Feb-18 03:50N 47°36' W 122°20'413.1
2018-Feb-18 03:30N 47°37' W 122°27'3 5.2
2018-Feb-18 03:00N 47°37' W 122°31'611.7
2018-Feb-18 02:30N 47°36' W 122°22'1 1.8
2018-Feb-18 02:00N 47°36' W 122°21'712.9
2018-Feb-18 01:29N 47°37' W 122°31'3 7.2
2018-Feb-18 01:01N 47°36' W 122°26'4 7.0
2018-Feb-18 00:30N 47°36' W 122°20'713.0
2018-Feb-17 23:58N 47°37' W 122°31'1 3.0
2018-Feb-17 23:30N 47°37' W 122°29'6 7.1
2018-Feb-17 22:43N 47°36' W 122°20'2 7.5
2018-Feb-17 22:30N 47°37' W 122°23'510.2
2018-Feb-17 21:59N 47°37' W 122°31'3 6.4
2018-Feb-17 21:31N 47°36' W 122°27'4 6.4
2018-Feb-17 20:51N 47°36' W 122°20'514.3
2018-Feb-17 20:30N 47°36' W 122°28'2 4.2
2018-Feb-17 20:00N 47°37' W 122°31'611.6
2018-Feb-17 19:31N 47°36' W 122°22'1 2.2
2018-Feb-17 18:58N 47°36' W 122°20'613.5
2018-Feb-17 18:30N 47°37' W 122°30'1 1.2
2018-Feb-17 18:01N 47°36' W 122°29'6 7.0
2018-Feb-17 17:12N 47°36' W 122°21'317.1
2018-Feb-17 17:00N 47°37' W 122°25'4 6.9
2018-Feb-17 16:30N 47°37' W 122°31'511.1
2018-Feb-17 16:00N 47°36' W 122°23'1 2.0
2018-Feb-17 15:30N 47°36' W 122°21'612.1
2018-Feb-17 14:58N 47°37' W 122°31'2 3.5
2018-Feb-17 14:30N 47°36' W 122°29'611.1
2018-Feb-17 14:00N 47°36' W 122°20'713.4
2018-Feb-17 13:31N 47°37' W 122°30'0 0.5
2018-Feb-17 12:58N 47°37' W 122°31'0 0.0
2018-Feb-17 12:25N 47°37' W 122°31'0 0.0
2018-Feb-17 11:58N 47°37' W 122°31'0 0.0
2018-Feb-17 11:28N 47°37' W 122°31'0 0.0
2018-Feb-17 10:55N 47°37' W 122°31'0 0.0
2018-Feb-17 10:28N 47°37' W 122°31'0 0.0
2018-Feb-17 09:58N 47°37' W 122°31'0 0.0
2018-Feb-17 09:28N 47°37' W 122°31'0 0.0
2018-Feb-17 08:55N 47°37' W 122°31'0 0.0
2018-Feb-17 08:28N 47°37' W 122°31'0 0.0
2018-Feb-17 07:55N 47°37' W 122°31'0 0.0
2018-Feb-17 07:19N 47°37' W 122°31'0 0.0
2018-Feb-17 06:58N 47°37' W 122°31'1 1.3
2018-Feb-17 06:31N 47°37' W 122°30'6 9.0
2018-Feb-17 05:48N 47°36' W 122°20'0 0.4
2018-Feb-17 05:29N 47°36' W 122°21'714.1
2018-Feb-17 05:00N 47°37' W 122°30'3 6.5
2018-Feb-17 04:30N 47°36' W 122°26'4 6.1
2018-Feb-17 03:53N 47°36' W 122°20'513.4
2018-Feb-17 03:30N 47°37' W 122°28'2 3.8
2018-Feb-17 03:01N 47°37' W 122°31'712.9
2018-Feb-17 02:28N 47°36' W 122°20'1 1.4
2018-Feb-17 02:00N 47°36' W 122°21'611.7
2018-Feb-17 01:28N 47°37' W 122°31'3 5.6
2018-Feb-17 01:00N 47°36' W 122°27'5 9.2
2018-Feb-17 00:31N 47°36' W 122°20'5 9.8
2018-Feb-17 00:00N 47°37' W 122°28'2 4.1
2018-Feb-16 23:30N 47°37' W 122°31'7 8.2
2018-Feb-16 22:40N 47°36' W 122°20'1 6.2
2018-Feb-16 22:30N 47°36' W 122°22'610.6
2018-Feb-16 21:57N 47°37' W 122°31'2 4.8
2018-Feb-16 21:30N 47°36' W 122°28'5 9.2
2018-Feb-16 20:57N 47°36' W 122°20'613.4
2018-Feb-16 20:30N 47°36' W 122°29'1 2.5
2018-Feb-16 20:00N 47°37' W 122°31'611.9
2018-Feb-16 19:31N 47°36' W 122°22'1 1.4
2018-Feb-16 18:55N 47°36' W 122°21'615.2
2018-Feb-16 18:30N 47°37' W 122°30'0 1.0
2018-Feb-16 18:00N 47°37' W 122°29'611.8
2018-Feb-16 17:29N 47°36' W 122°20'4 7.8
2018-Feb-16 17:01N 47°37' W 122°26'3 6.2
2018-Feb-16 16:29N 47°37' W 122°31'611.5
2018-Feb-16 16:00N 47°36' W 122°22'1 1.3
2018-Feb-16 15:30N 47°36' W 122°21'612.1
2018-Feb-16 14:59N 47°37' W 122°31'2 4.1
2018-Feb-16 14:30N 47°36' W 122°28'5 9.5
2018-Feb-16 13:56N 47°36' W 122°20'613.2
2018-Feb-16 13:30N 47°36' W 122°29'2 2.9
2018-Feb-16 12:59N 47°37' W 122°31'0 0.0
2018-Feb-16 12:29N 47°37' W 122°31'0 0.0
2018-Feb-16 11:59N 47°37' W 122°31'0 0.0
2018-Feb-16 11:29N 47°37' W 122°31'0 0.0
2018-Feb-16 10:59N 47°37' W 122°31'0 0.0
2018-Feb-16 10:29N 47°37' W 122°31'0 0.0
2018-Feb-16 09:59N 47°37' W 122°31'0 0.0
2018-Feb-16 09:29N 47°37' W 122°31'0 0.0
2018-Feb-16 08:59N 47°37' W 122°31'0 0.0
2018-Feb-16 08:29N 47°37' W 122°31'0 0.0
2018-Feb-16 07:59N 47°37' W 122°31'0 0.0
2018-Feb-16 07:29N 47°37' W 122°31'0 0.0
2018-Feb-16 06:59N 47°37' W 122°31'1 1.1
2018-Feb-16 06:30N 47°37' W 122°30'6 5.9
2018-Feb-16 05:27N 47°36' W 122°21'714.7
2018-Feb-16 05:00N 47°37' W 122°30'3 6.7
2018-Feb-16 04:30N 47°36' W 122°26'4 6.8
2018-Feb-16 03:58N 47°36' W 122°20'714.6
2018-Feb-16 03:31N 47°37' W 122°30'0 0.7
2018-Feb-16 03:00N 47°37' W 122°31'7 8.1
2018-Feb-16 02:09N 47°36' W 122°20'1 9.3
2018-Feb-16 02:00N 47°37' W 122°22'610.6
2018-Feb-16 01:29N 47°37' W 122°31'3 5.8
2018-Feb-16 01:00N 47°37' W 122°27'4 8.5
2018-Feb-16 00:30N 47°36' W 122°20'510.1
2018-Feb-16 00:00N 47°36' W 122°28'2 4.1
2018-Feb-15 23:30N 47°37' W 122°31'713.1
2018-Feb-15 22:59N 47°36' W 122°20'2 3.3
2018-Feb-15 22:30N 47°37' W 122°23'5 9.7
2018-Feb-15 21:57N 47°37' W 122°31'2 3.4
2018-Feb-15 21:30N 47°36' W 122°29'6 9.1
2018-Feb-15 20:52N 47°36' W 122°20'513.8
2018-Feb-15 20:30N 47°36' W 122°28'2 4.0
2018-Feb-15 19:59N 47°37' W 122°31'612.1
2018-Feb-15 19:30N 47°36' W 122°22'1 2.3
2018-Feb-15 18:58N 47°36' W 122°20'613.6
2018-Feb-15 18:30N 47°37' W 122°30'0 0.0
2018-Feb-15 18:00N 47°37' W 122°30'610.0
2018-Feb-15 17:22N 47°36' W 122°20'410.9
2018-Feb-15 17:01N 47°37' W 122°26'3 5.9
2018-Feb-15 16:29N 47°37' W 122°31'611.7
2018-Feb-15 16:00N 47°36' W 122°22'0 0.9
2018-Feb-15 15:30N 47°36' W 122°22'611.5
2018-Feb-15 14:59N 47°37' W 122°31'2 4.1
2018-Feb-15 14:30N 47°36' W 122°28'5 8.2
2018-Feb-15 13:51N 47°36' W 122°20'514.4
2018-Feb-15 13:31N 47°36' W 122°28'2 4.2
2018-Feb-15 13:00N 47°37' W 122°31'0 0.0
2018-Feb-15 12:30N 47°37' W 122°31'0 0.0
2018-Feb-15 12:00N 47°37' W 122°31'0 0.0
2018-Feb-15 11:30N 47°37' W 122°31'0 0.0
2018-Feb-15 11:00N 47°37' W 122°31'0 0.0
2018-Feb-15 10:30N 47°37' W 122°31'0 0.0
2018-Feb-15 09:54N 47°37' W 122°31'0 0.0
2018-Feb-15 09:30N 47°37' W 122°31'0 0.0
2018-Feb-15 08:59N 47°37' W 122°31'0 0.0
2018-Feb-15 08:27N 47°37' W 122°31'0 0.0
2018-Feb-15 08:00N 47°37' W 122°31'0 0.0
2018-Feb-15 07:29N 47°37' W 122°31'0 0.0
2018-Feb-15 06:59N 47°37' W 122°31'1 1.4
2018-Feb-15 06:30N 47°37' W 122°30'6 6.5
2018-Feb-15 05:32N 47°36' W 122°20'0 2.6
2018-Feb-15 05:29N 47°36' W 122°21'714.1
2018-Feb-15 05:00N 47°37' W 122°30'3 5.9
2018-Feb-15 04:30N 47°36' W 122°26'4 6.8
2018-Feb-15 03:54N 47°36' W 122°20'513.2
2018-Feb-15 03:30N 47°36' W 122°28'2 3.2
2018-Feb-15 03:00N 47°37' W 122°30'7 7.6
2018-Feb-15 02:08N 47°36' W 122°20'1 7.8
2018-Feb-15 02:00N 47°36' W 122°22'611.8
2018-Feb-15 01:30N 47°37' W 122°31'3 6.4
2018-Feb-15 01:00N 47°36' W 122°26'4 7.8
2018-Feb-15 00:30N 47°36' W 122°20'510.5
2018-Feb-15 00:00N 47°36' W 122°28'2 3.8
2018-Feb-14 23:30N 47°37' W 122°31'713.6
2018-Feb-14 23:00N 47°36' W 122°21'1 1.6
2018-Feb-14 22:30N 47°36' W 122°22'611.9
2018-Feb-14 22:00N 47°37' W 122°31'2 4.4
2018-Feb-14 21:30N 47°36' W 122°28'5 7.9
2018-Feb-14 20:52N 47°36' W 122°20'514.1
2018-Feb-14 20:31N 47°36' W 122°28'2 4.2
2018-Feb-14 20:00N 47°37' W 122°31'611.9
2018-Feb-14 19:30N 47°36' W 122°22'1 1.8
2018-Feb-14 18:57N 47°36' W 122°20'614.3
2018-Feb-14 18:30N 47°37' W 122°30'0 0.1
2018-Feb-14 18:00N 47°37' W 122°30'6 8.9
2018-Feb-14 17:18N 47°36' W 122°20'413.1
2018-Feb-14 17:00N 47°37' W 122°26'3 6.1
2018-Feb-14 16:29N 47°37' W 122°31'612.1
2018-Feb-14 16:00N 47°36' W 122°22'0 0.6
2018-Feb-14 15:30N 47°36' W 122°22'611.6
2018-Feb-14 14:59N 47°37' W 122°31'3 5.7
2018-Feb-14 14:30N 47°36' W 122°27'4 7.6
2018-Feb-14 13:56N 47°36' W 122°20'512.0
2018-Feb-14 13:30N 47°36' W 122°28'2 3.8
2018-Feb-14 12:58N 47°37' W 122°31'0 0.0
2018-Feb-14 12:28N 47°37' W 122°31'0 0.0
2018-Feb-14 11:58N 47°37' W 122°31'0 0.0
2018-Feb-14 11:28N 47°37' W 122°31'0 0.0
2018-Feb-14 10:58N 47°37' W 122°31'0 0.0
2018-Feb-14 10:19N 47°37' W 122°31'0 1.4
2018-Feb-14 10:00N 47°37' W 122°30'712.7
2018-Feb-14 09:30N 47°36' W 122°20'612.7
2018-Feb-14 09:01N 47°37' W 122°30'2 4.7
2018-Feb-14 08:30N 47°36' W 122°26'2 4.3
2018-Feb-14 08:00N 47°36' W 122°23'510.9
2018-Feb-14 07:30N 47°37' W 122°31'612.2
2018-Feb-14 07:00N 47°36' W 122°22'1 1.6
2018-Feb-14 06:30N 47°36' W 122°20'613.1
2018-Feb-14 06:00N 47°37' W 122°30'2 4.3
2018-Feb-14 05:30N 47°36' W 122°27'4 6.6
2018-Feb-14 04:51N 47°36' W 122°20'515.8
2018-Feb-14 04:30N 47°36' W 122°28'2 3.5
2018-Feb-14 04:00N 47°37' W 122°30'7 8.2
2018-Feb-14 03:10N 47°36' W 122°20'212.8
2018-Feb-14 03:00N 47°37' W 122°23'5 8.6
2018-Feb-14 02:26N 47°37' W 122°31'3 6.5
2018-Feb-14 02:00N 47°36' W 122°27'4 6.5
2018-Feb-14 01:21N 47°36' W 122°20'411.2
2018-Feb-14 01:00N 47°37' W 122°26'3 6.1
2018-Feb-14 00:30N 47°37' W 122°31'5 9.5
2018-Feb-14 00:00N 47°36' W 122°24'2 4.1
2018-Feb-13 23:28N 47°36' W 122°21'714.5
2018-Feb-13 23:00N 47°37' W 122°31'1 1.9
2018-Feb-13 22:30N 47°37' W 122°30'610.7
2018-Feb-13 21:56N 47°36' W 122°20'612.8
2018-Feb-13 21:30N 47°36' W 122°29'2 3.4
2018-Feb-13 21:00N 47°37' W 122°30'611.4
2018-Feb-13 20:28N 47°36' W 122°21'1 1.3
2018-Feb-13 19:59N 47°36' W 122°21'712.7
2018-Feb-13 19:27N 47°37' W 122°31'2 3.4
2018-Feb-13 19:00N 47°36' W 122°29'611.2
2018-Feb-13 18:29N 47°36' W 122°20'3 5.5
2018-Feb-13 18:00N 47°36' W 122°24'4 8.0
2018-Feb-13 17:28N 47°37' W 122°31'3 7.1
2018-Feb-13 17:01N 47°36' W 122°26'4 7.7
2018-Feb-13 16:30N 47°36' W 122°20'713.1
2018-Feb-13 16:00N 47°37' W 122°30'1 1.6
2018-Feb-13 15:30N 47°37' W 122°29'611.8
2018-Feb-13 14:59N 47°36' W 122°20'611.7
2018-Feb-13 14:30N 47°36' W 122°29'1 2.8
2018-Feb-13 14:00N 47°37' W 122°30'711.0
2018-Feb-13 13:24N 47°36' W 122°20'614.5
2018-Feb-13 13:00N 47°36' W 122°29'2 2.9
2018-Feb-13 12:28N 47°37' W 122°31'0 0.0
2018-Feb-13 11:58N 47°37' W 122°31'0 0.0
2018-Feb-13 11:28N 47°37' W 122°31'0 0.0
2018-Feb-13 10:58N 47°37' W 122°31'0 0.0
2018-Feb-13 10:28N 47°37' W 122°31'1 1.5
2018-Feb-13 10:00N 47°37' W 122°30'611.4
2018-Feb-13 09:27N 47°36' W 122°20'613.9
2018-Feb-13 09:00N 47°37' W 122°30'2 3.6
2018-Feb-13 08:30N 47°36' W 122°27'4 7.6
2018-Feb-13 08:00N 47°36' W 122°21'612.1
2018-Feb-13 07:30N 47°37' W 122°31'611.5
2018-Feb-13 07:00N 47°36' W 122°22'1 1.9
2018-Feb-13 06:25N 47°36' W 122°21'615.0
2018-Feb-13 06:00N 47°37' W 122°30'2 4.4
2018-Feb-13 05:30N 47°36' W 122°27'4 7.0
2018-Feb-13 04:53N 47°36' W 122°20'513.7
2018-Feb-13 04:31N 47°36' W 122°28'1 2.0
2018-Feb-13 04:00N 47°37' W 122°30'6 7.4
2018-Feb-13 03:11N 47°36' W 122°20'213.5
2018-Feb-13 03:01N 47°36' W 122°24'5 9.1
2018-Feb-13 02:30N 47°37' W 122°31'3 5.9
2018-Feb-13 02:00N 47°36' W 122°27'4 6.1
2018-Feb-13 01:20N 47°36' W 122°20'412.5
2018-Feb-13 01:01N 47°36' W 122°26'3 5.6
2018-Feb-13 00:29N 47°37' W 122°31'4 9.0
2018-Feb-13 00:01N 47°36' W 122°24'3 4.9
2018-Feb-12 23:29N 47°36' W 122°20'613.3
2018-Feb-12 23:00N 47°37' W 122°30'0 0.1
2018-Feb-12 22:30N 47°37' W 122°30'6 9.4
2018-Feb-12 21:51N 47°36' W 122°20'513.9
2018-Feb-12 21:30N 47°37' W 122°27'2 4.1
2018-Feb-12 21:00N 47°37' W 122°30'611.5
2018-Feb-12 20:30N 47°36' W 122°22'1 1.9
2018-Feb-12 20:00N 47°36' W 122°20'713.6
2018-Feb-12 19:30N 47°37' W 122°30'2 3.6
2018-Feb-12 19:01N 47°36' W 122°29'6 9.3
2018-Feb-12 18:25N 47°36' W 122°20'2 5.9
2018-Feb-12 18:01N 47°36' W 122°24'5 8.4
2018-Feb-12 17:28N 47°37' W 122°31'4 8.6
2018-Feb-12 17:00N 47°36' W 122°25'3 6.2
2018-Feb-12 16:31N 47°36' W 122°20'713.4
2018-Feb-12 16:00N 47°37' W 122°30'1 1.4
2018-Feb-12 15:30N 47°37' W 122°30'611.7
2018-Feb-12 14:59N 47°36' W 122°20'511.1
2018-Feb-12 14:30N 47°36' W 122°28'2 3.8
2018-Feb-12 14:00N 47°37' W 122°31'711.6
2018-Feb-12 13:25N 47°36' W 122°20'410.4
2018-Feb-12 13:00N 47°36' W 122°27'3 5.7
2018-Feb-12 12:30N 47°37' W 122°31'0 0.0
2018-Feb-12 12:00N 47°37' W 122°31'0 0.0
2018-Feb-12 11:30N 47°37' W 122°31'0 0.0
2018-Feb-12 11:00N 47°37' W 122°31'0 0.0
2018-Feb-12 10:30N 47°37' W 122°31'0 0.0
2018-Feb-12 10:00N 47°37' W 122°31'0 0.0
2018-Feb-12 09:27N 47°37' W 122°31'0 0.0
2018-Feb-12 09:00N 47°37' W 122°31'0 0.0
2018-Feb-12 08:30N 47°37' W 122°31'0 0.0
2018-Feb-12 07:56N 47°37' W 122°31'0 0.0
2018-Feb-12 07:30N 47°37' W 122°31'2 3.5
2018-Feb-12 07:00N 47°36' W 122°29'6 7.4
2018-Feb-12 06:15N 47°36' W 122°20'414.8
2018-Feb-12 06:00N 47°36' W 122°26'3 6.6
2018-Feb-12 05:30N 47°37' W 122°31'711.5
2018-Feb-12 04:54N 47°36' W 122°20'3 7.0
2018-Feb-12 04:30N 47°37' W 122°25'4 8.3
2018-Feb-12 04:00N 47°37' W 122°31'7 9.0
2018-Feb-12 03:14N 47°36' W 122°20'1 4.0
2018-Feb-12 03:01N 47°36' W 122°22'611.5
2018-Feb-12 02:29N 47°37' W 122°31'2 4.4
2018-Feb-12 02:01N 47°36' W 122°28'510.4
2018-Feb-12 01:30N 47°36' W 122°20'4 7.4
2018-Feb-12 01:01N 47°36' W 122°26'3 6.6
2018-Feb-12 00:30N 47°37' W 122°31'611.1
2018-Feb-12 00:00N 47°36' W 122°23'1 2.1
2018-Feb-11 23:30N 47°36' W 122°21'713.1
2018-Feb-11 23:00N 47°37' W 122°31'2 4.4
2018-Feb-11 22:30N 47°36' W 122°28'5 7.8
2018-Feb-11 21:52N 47°36' W 122°20'514.6
2018-Feb-11 21:31N 47°36' W 122°28'2 3.7
2018-Feb-11 21:00N 47°37' W 122°31'7 8.6
2018-Feb-11 20:12N 47°36' W 122°20'210.8
2018-Feb-11 20:00N 47°36' W 122°24'5 9.2
2018-Feb-11 19:29N 47°37' W 122°31'2 4.0
2018-Feb-11 19:00N 47°36' W 122°28'5 7.3
2018-Feb-11 18:16N 47°36' W 122°20'413.5
2018-Feb-11 18:00N 47°36' W 122°26'4 6.4
2018-Feb-11 17:28N 47°37' W 122°31'612.5
2018-Feb-11 17:00N 47°36' W 122°22'  

Dump ship's entire track history